sensor_id;sensor_type;location;lat;lon;timestamp;P1;durP1;ratioP1;P2;durP2;ratioP2
12788;SDS011;6458;42.710;23.192;2022-09-24T00:01:53;3.13;;;2.93;;
12788;SDS011;6458;42.710;23.192;2022-09-24T00:04:20;2.93;;;2.73;;
12788;SDS011;6458;42.710;23.192;2022-09-24T00:06:49;3.17;;;2.97;;
12788;SDS011;6458;42.710;23.192;2022-09-24T00:09:17;2.77;;;2.67;;
12788;SDS011;6458;42.710;23.192;2022-09-24T00:11:46;4.47;;;3.37;;
12788;SDS011;6458;42.710;23.192;2022-09-24T00:14:13;2.93;;;2.73;;
12788;SDS011;6458;42.710;23.192;2022-09-24T00:16:42;3.57;;;3.37;;
12788;SDS011;6458;42.710;23.192;2022-09-24T00:19:10;3.67;;;3.43;;
12788;SDS011;6458;42.710;23.192;2022-09-24T00:21:36;3.60;;;3.40;;
12788;SDS011;6458;42.710;23.192;2022-09-24T00:24:04;3.90;;;3.10;;
12788;SDS011;6458;42.710;23.192;2022-09-24T00:26:31;2.93;;;2.73;;
12788;SDS011;6458;42.710;23.192;2022-09-24T00:29:16;2.20;;;2.20;;
12788;SDS011;6458;42.710;23.192;2022-09-24T00:31:44;2.80;;;2.60;;
12788;SDS011;6458;42.710;23.192;2022-09-24T00:34:11;2.80;;;2.60;;
12788;SDS011;6458;42.710;23.192;2022-09-24T00:36:38;3.10;;;2.80;;
12788;SDS011;6458;42.710;23.192;2022-09-24T00:39:05;3.97;;;2.87;;
12788;SDS011;6458;42.710;23.192;2022-09-24T00:41:33;2.57;;;2.47;;
12788;SDS011;6458;42.710;23.192;2022-09-24T00:44:00;3.13;;;2.87;;
12788;SDS011;6458;42.710;23.192;2022-09-24T00:46:28;4.33;;;3.73;;
12788;SDS011;6458;42.710;23.192;2022-09-24T00:49:00;4.20;;;3.90;;
12788;SDS011;6458;42.710;23.192;2022-09-24T00:51:28;3.87;;;3.67;;
12788;SDS011;6458;42.710;23.192;2022-09-24T00:53:56;3.70;;;3.47;;
12788;SDS011;6458;42.710;23.192;2022-09-24T00:56:25;3.57;;;3.27;;
12788;SDS011;6458;42.710;23.192;2022-09-24T00:58:53;4.53;;;4.23;;
12788;SDS011;6458;42.710;23.192;2022-09-24T01:01:23;3.67;;;3.43;;
12788;SDS011;6458;42.710;23.192;2022-09-24T01:03:51;4.83;;;3.63;;
12788;SDS011;6458;42.710;23.192;2022-09-24T01:06:21;3.07;;;2.87;;
12788;SDS011;6458;42.710;23.192;2022-09-24T01:08:48;4.03;;;3.70;;
12788;SDS011;6458;42.710;23.192;2022-09-24T01:11:18;3.77;;;3.57;;
12788;SDS011;6458;42.710;23.192;2022-09-24T01:13:53;4.67;;;4.13;;
12788;SDS011;6458;42.710;23.192;2022-09-24T01:16:26;3.93;;;3.53;;
12788;SDS011;6458;42.710;23.192;2022-09-24T01:18:55;4.37;;;4.00;;
12788;SDS011;6458;42.710;23.192;2022-09-24T01:21:32;4.73;;;4.30;;
12788;SDS011;6458;42.710;23.192;2022-09-24T01:24:14;4.17;;;3.40;;
12788;SDS011;6458;42.710;23.192;2022-09-24T01:26:49;3.73;;;3.47;;
12788;SDS011;6458;42.710;23.192;2022-09-24T01:29:27;3.50;;;3.20;;
12788;SDS011;6458;42.710;23.192;2022-09-24T01:31:56;4.40;;;3.60;;
12788;SDS011;6458;42.710;23.192;2022-09-24T01:34:28;3.73;;;3.53;;
12788;SDS011;6458;42.710;23.192;2022-09-24T01:36:55;4.93;;;3.57;;
12788;SDS011;6458;42.710;23.192;2022-09-24T01:39:24;4.67;;;4.27;;
12788;SDS011;6458;42.710;23.192;2022-09-24T01:41:52;3.47;;;3.27;;
12788;SDS011;6458;42.710;23.192;2022-09-24T01:44:21;3.73;;;3.53;;
12788;SDS011;6458;42.710;23.192;2022-09-24T01:46:50;4.93;;;4.50;;
12788;SDS011;6458;42.710;23.192;2022-09-24T01:49:17;4.33;;;3.97;;
12788;SDS011;6458;42.710;23.192;2022-09-24T01:51:44;5.03;;;4.20;;
12788;SDS011;6458;42.710;23.192;2022-09-24T01:54:15;5.23;;;4.53;;
12788;SDS011;6458;42.710;23.192;2022-09-24T01:56:43;3.80;;;3.40;;
12788;SDS011;6458;42.710;23.192;2022-09-24T01:59:17;3.53;;;3.23;;
12788;SDS011;6458;42.710;23.192;2022-09-24T02:01:48;4.57;;;4.17;;
12788;SDS011;6458;42.710;23.192;2022-09-24T02:04:18;5.03;;;4.53;;
12788;SDS011;6458;42.710;23.192;2022-09-24T02:06:48;4.10;;;3.80;;
12788;SDS011;6458;42.710;23.192;2022-09-24T02:09:27;5.03;;;4.57;;
12788;SDS011;6458;42.710;23.192;2022-09-24T02:11:54;4.57;;;4.23;;
12788;SDS011;6458;42.710;23.192;2022-09-24T02:14:22;4.83;;;3.83;;
12788;SDS011;6458;42.710;23.192;2022-09-24T02:16:49;4.10;;;3.67;;
12788;SDS011;6458;42.710;23.192;2022-09-24T02:19:18;7.00;;;4.60;;
12788;SDS011;6458;42.710;23.192;2022-09-24T02:21:47;5.43;;;4.27;;
12788;SDS011;6458;42.710;23.192;2022-09-24T02:24:15;4.83;;;4.33;;
12788;SDS011;6458;42.710;23.192;2022-09-24T02:26:42;5.20;;;4.70;;
12788;SDS011;6458;42.710;23.192;2022-09-24T02:29:09;7.50;;;5.50;;
12788;SDS011;6458;42.710;23.192;2022-09-24T02:31:37;6.90;;;6.30;;
12788;SDS011;6458;42.710;23.192;2022-09-24T02:34:06;6.90;;;5.13;;
12788;SDS011;6458;42.710;23.192;2022-09-24T02:36:46;6.10;;;5.00;;
12788;SDS011;6458;42.710;23.192;2022-09-24T02:39:13;6.20;;;5.60;;
12788;SDS011;6458;42.710;23.192;2022-09-24T02:41:41;4.07;;;3.77;;
12788;SDS011;6458;42.710;23.192;2022-09-24T02:44:09;4.67;;;4.37;;
12788;SDS011;6458;42.710;23.192;2022-09-24T02:46:36;4.50;;;4.13;;
12788;SDS011;6458;42.710;23.192;2022-09-24T02:49:03;4.50;;;4.10;;
12788;SDS011;6458;42.710;23.192;2022-09-24T02:51:29;4.80;;;4.40;;
12788;SDS011;6458;42.710;23.192;2022-09-24T02:53:58;4.43;;;4.10;;
12788;SDS011;6458;42.710;23.192;2022-09-24T02:56:25;4.43;;;4.00;;
12788;SDS011;6458;42.710;23.192;2022-09-24T02:58:52;5.27;;;4.87;;
12788;SDS011;6458;42.710;23.192;2022-09-24T03:01:19;7.30;;;4.53;;
12788;SDS011;6458;42.710;23.192;2022-09-24T03:03:46;4.87;;;4.47;;
12788;SDS011;6458;42.710;23.192;2022-09-24T03:06:13;6.20;;;5.57;;
12788;SDS011;6458;42.710;23.192;2022-09-24T03:08:40;5.13;;;4.60;;
12788;SDS011;6458;42.710;23.192;2022-09-24T03:11:08;4.80;;;4.40;;
12788;SDS011;6458;42.710;23.192;2022-09-24T03:13:36;4.13;;;3.83;;
12788;SDS011;6458;42.710;23.192;2022-09-24T03:16:03;4.33;;;4.03;;
12788;SDS011;6458;42.710;23.192;2022-09-24T03:18:29;5.67;;;4.97;;
12788;SDS011;6458;42.710;23.192;2022-09-24T03:20:57;5.20;;;4.43;;
12788;SDS011;6458;42.710;23.192;2022-09-24T03:23:24;4.33;;;4.03;;
12788;SDS011;6458;42.710;23.192;2022-09-24T03:25:51;3.83;;;3.47;;
12788;SDS011;6458;42.710;23.192;2022-09-24T03:28:20;4.23;;;3.83;;
12788;SDS011;6458;42.710;23.192;2022-09-24T03:30:47;5.90;;;4.40;;
12788;SDS011;6458;42.710;23.192;2022-09-24T03:33:24;3.93;;;3.63;;
12788;SDS011;6458;42.710;23.192;2022-09-24T03:35:53;5.10;;;4.63;;
12788;SDS011;6458;42.710;23.192;2022-09-24T03:38:20;5.53;;;5.03;;
12788;SDS011;6458;42.710;23.192;2022-09-24T03:40:47;4.23;;;3.93;;
12788;SDS011;6458;42.710;23.192;2022-09-24T03:43:14;4.43;;;3.73;;
12788;SDS011;6458;42.710;23.192;2022-09-24T03:45:42;4.63;;;4.23;;
12788;SDS011;6458;42.710;23.192;2022-09-24T03:48:09;4.10;;;3.80;;
12788;SDS011;6458;42.710;23.192;2022-09-24T03:50:36;4.53;;;4.13;;
12788;SDS011;6458;42.710;23.192;2022-09-24T03:53:02;7.13;;;5.07;;
12788;SDS011;6458;42.710;23.192;2022-09-24T03:55:30;5.53;;;5.10;;
12788;SDS011;6458;42.710;23.192;2022-09-24T03:57:56;4.77;;;4.37;;
12788;SDS011;6458;42.710;23.192;2022-09-24T04:00:23;5.27;;;4.77;;
12788;SDS011;6458;42.710;23.192;2022-09-24T04:02:52;4.77;;;4.37;;
12788;SDS011;6458;42.710;23.192;2022-09-24T04:05:19;4.80;;;4.30;;
12788;SDS011;6458;42.710;23.192;2022-09-24T04:07:46;4.30;;;3.90;;
12788;SDS011;6458;42.710;23.192;2022-09-24T04:10:13;3.93;;;3.63;;
12788;SDS011;6458;42.710;23.192;2022-09-24T04:12:39;6.67;;;5.67;;
12788;SDS011;6458;42.710;23.192;2022-09-24T04:15:08;4.50;;;4.13;;
12788;SDS011;6458;42.710;23.192;2022-09-24T04:17:35;4.60;;;4.10;;
12788;SDS011;6458;42.710;23.192;2022-09-24T04:20:03;4.20;;;3.70;;
12788;SDS011;6458;42.710;23.192;2022-09-24T04:22:30;4.53;;;4.03;;
12788;SDS011;6458;42.710;23.192;2022-09-24T04:24:57;4.43;;;4.13;;
12788;SDS011;6458;42.710;23.192;2022-09-24T04:27:24;4.07;;;3.70;;
12788;SDS011;6458;42.710;23.192;2022-09-24T04:29:51;4.23;;;3.70;;
12788;SDS011;6458;42.710;23.192;2022-09-24T04:32:18;5.20;;;3.83;;
12788;SDS011;6458;42.710;23.192;2022-09-24T04:34:46;4.40;;;4.00;;
12788;SDS011;6458;42.710;23.192;2022-09-24T04:37:15;6.80;;;4.83;;
12788;SDS011;6458;42.710;23.192;2022-09-24T04:39:41;4.67;;;4.20;;
12788;SDS011;6458;42.710;23.192;2022-09-24T04:42:08;4.83;;;4.47;;
12788;SDS011;6458;42.710;23.192;2022-09-24T04:44:35;5.27;;;4.63;;
12788;SDS011;6458;42.710;23.192;2022-09-24T04:47:01;5.93;;;4.33;;
12788;SDS011;6458;42.710;23.192;2022-09-24T04:49:28;5.87;;;4.37;;
12788;SDS011;6458;42.710;23.192;2022-09-24T04:51:55;5.80;;;5.20;;
12788;SDS011;6458;42.710;23.192;2022-09-24T04:54:25;7.03;;;4.80;;
12788;SDS011;6458;42.710;23.192;2022-09-24T04:56:53;6.00;;;4.40;;
12788;SDS011;6458;42.710;23.192;2022-09-24T04:59:20;5.00;;;4.50;;
12788;SDS011;6458;42.710;23.192;2022-09-24T05:01:47;5.30;;;4.40;;
12788;SDS011;6458;42.710;23.192;2022-09-24T05:04:20;4.07;;;3.87;;
12788;SDS011;6458;42.710;23.192;2022-09-24T05:06:46;7.27;;;5.43;;
12788;SDS011;6458;42.710;23.192;2022-09-24T05:09:13;5.87;;;5.37;;
12788;SDS011;6458;42.710;23.192;2022-09-24T05:11:41;4.70;;;4.40;;
12788;SDS011;6458;42.710;23.192;2022-09-24T05:14:08;6.20;;;5.60;;
12788;SDS011;6458;42.710;23.192;2022-09-24T05:16:35;5.20;;;4.80;;
12788;SDS011;6458;42.710;23.192;2022-09-24T05:19:02;5.23;;;4.73;;
12788;SDS011;6458;42.710;23.192;2022-09-24T05:21:29;5.13;;;4.73;;
12788;SDS011;6458;42.710;23.192;2022-09-24T05:23:56;5.83;;;5.23;;
12788;SDS011;6458;42.710;23.192;2022-09-24T05:26:23;6.70;;;5.30;;
12788;SDS011;6458;42.710;23.192;2022-09-24T05:29:09;6.00;;;5.40;;
12788;SDS011;6458;42.710;23.192;2022-09-24T05:31:35;6.97;;;6.30;;
12788;SDS011;6458;42.710;23.192;2022-09-24T05:34:02;7.73;;;4.53;;
12788;SDS011;6458;42.710;23.192;2022-09-24T05:36:29;5.30;;;4.77;;
12788;SDS011;6458;42.710;23.192;2022-09-24T05:38:56;5.07;;;4.67;;
12788;SDS011;6458;42.710;23.192;2022-09-24T05:41:23;5.23;;;4.83;;
12788;SDS011;6458;42.710;23.192;2022-09-24T05:43:50;7.27;;;5.40;;
12788;SDS011;6458;42.710;23.192;2022-09-24T05:46:18;6.23;;;5.50;;
12788;SDS011;6458;42.710;23.192;2022-09-24T05:48:45;6.00;;;5.40;;
12788;SDS011;6458;42.710;23.192;2022-09-24T05:51:11;7.13;;;6.43;;
12788;SDS011;6458;42.710;23.192;2022-09-24T05:53:38;5.13;;;4.63;;
12788;SDS011;6458;42.710;23.192;2022-09-24T05:56:05;6.40;;;5.80;;
12788;SDS011;6458;42.710;23.192;2022-09-24T05:58:32;5.67;;;5.17;;
12788;SDS011;6458;42.710;23.192;2022-09-24T06:00:59;5.97;;;5.47;;
12788;SDS011;6458;42.710;23.192;2022-09-24T06:03:27;9.13;;;5.57;;
12788;SDS011;6458;42.710;23.192;2022-09-24T06:08:47;7.17;;;5.40;;
12788;SDS011;6458;42.710;23.192;2022-09-24T06:11:14;5.27;;;4.77;;
12788;SDS011;6458;42.710;23.192;2022-09-24T06:13:40;6.13;;;4.80;;
12788;SDS011;6458;42.710;23.192;2022-09-24T06:16:07;6.00;;;5.40;;
12788;SDS011;6458;42.710;23.192;2022-09-24T06:18:36;6.97;;;6.27;;
12788;SDS011;6458;42.710;23.192;2022-09-24T06:21:04;7.17;;;6.23;;
12788;SDS011;6458;42.710;23.192;2022-09-24T06:23:32;7.37;;;6.67;;
12788;SDS011;6458;42.710;23.192;2022-09-24T06:25:58;12.03;;;8.40;;
12788;SDS011;6458;42.710;23.192;2022-09-24T06:28:25;9.40;;;7.43;;
12788;SDS011;6458;42.710;23.192;2022-09-24T06:30:52;8.30;;;7.10;;
12788;SDS011;6458;42.710;23.192;2022-09-24T06:33:20;8.70;;;7.57;;
12788;SDS011;6458;42.710;23.192;2022-09-24T06:35:49;9.90;;;7.27;;
12788;SDS011;6458;42.710;23.192;2022-09-24T06:38:16;10.17;;;9.10;;
12788;SDS011;6458;42.710;23.192;2022-09-24T06:40:44;10.60;;;9.23;;
12788;SDS011;6458;42.710;23.192;2022-09-24T06:43:12;9.90;;;6.87;;
12788;SDS011;6458;42.710;23.192;2022-09-24T06:45:40;9.47;;;6.10;;
12788;SDS011;6458;42.710;23.192;2022-09-24T06:48:07;6.87;;;6.10;;
12788;SDS011;6458;42.710;23.192;2022-09-24T06:50:37;7.33;;;6.63;;
12788;SDS011;6458;42.710;23.192;2022-09-24T06:53:06;6.70;;;5.70;;
12788;SDS011;6458;42.710;23.192;2022-09-24T06:55:33;7.00;;;5.80;;
12788;SDS011;6458;42.710;23.192;2022-09-24T06:58:00;8.80;;;5.97;;
12788;SDS011;6458;42.710;23.192;2022-09-24T07:00:27;5.97;;;5.47;;
12788;SDS011;6458;42.710;23.192;2022-09-24T07:02:54;6.53;;;5.90;;
12788;SDS011;6458;42.710;23.192;2022-09-24T07:05:20;7.20;;;6.50;;
12788;SDS011;6458;42.710;23.192;2022-09-24T07:16:24;8.23;;;7.23;;
12788;SDS011;6458;42.710;23.192;2022-09-24T07:18:51;9.00;;;7.40;;
12788;SDS011;6458;42.710;23.192;2022-09-24T07:21:18;8.40;;;7.30;;
12788;SDS011;6458;42.710;23.192;2022-09-24T07:23:45;8.37;;;7.47;;
12788;SDS011;6458;42.710;23.192;2022-09-24T07:26:12;8.53;;;6.73;;
12788;SDS011;6458;42.710;23.192;2022-09-24T07:28:38;10.07;;;7.80;;
12788;SDS011;6458;42.710;23.192;2022-09-24T07:31:05;7.53;;;6.77;;
12788;SDS011;6458;42.710;23.192;2022-09-24T07:33:34;9.10;;;7.07;;
12788;SDS011;6458;42.710;23.192;2022-09-24T07:36:02;9.13;;;7.60;;
12788;SDS011;6458;42.710;23.192;2022-09-24T07:38:30;9.73;;;6.57;;
12788;SDS011;6458;42.710;23.192;2022-09-24T07:40:58;9.77;;;7.13;;
12788;SDS011;6458;42.710;23.192;2022-09-24T07:43:25;10.87;;;6.93;;
12788;SDS011;6458;42.710;23.192;2022-09-24T07:45:52;8.43;;;7.53;;
12788;SDS011;6458;42.710;23.192;2022-09-24T07:48:19;7.03;;;6.30;;
12788;SDS011;6458;42.710;23.192;2022-09-24T07:50:48;11.20;;;6.67;;
12788;SDS011;6458;42.710;23.192;2022-09-24T07:53:15;7.20;;;6.57;;
12788;SDS011;6458;42.710;23.192;2022-09-24T07:55:42;9.60;;;6.60;;
12788;SDS011;6458;42.710;23.192;2022-09-24T07:58:10;7.47;;;6.73;;
12788;SDS011;6458;42.710;23.192;2022-09-24T08:00:37;8.57;;;6.67;;
12788;SDS011;6458;42.710;23.192;2022-09-24T08:03:04;7.67;;;6.43;;
12788;SDS011;6458;42.710;23.192;2022-09-24T08:05:34;8.57;;;5.87;;
12788;SDS011;6458;42.710;23.192;2022-09-24T08:08:02;14.00;;;7.00;;
12788;SDS011;6458;42.710;23.192;2022-09-24T08:10:29;7.73;;;6.60;;
12788;SDS011;6458;42.710;23.192;2022-09-24T08:12:59;6.77;;;6.17;;
12788;SDS011;6458;42.710;23.192;2022-09-24T08:15:26;9.30;;;6.10;;
12788;SDS011;6458;42.710;23.192;2022-09-24T08:17:53;6.73;;;6.13;;
12788;SDS011;6458;42.710;23.192;2022-09-24T08:20:20;7.13;;;5.53;;
12788;SDS011;6458;42.710;23.192;2022-09-24T08:22:48;7.83;;;5.80;;
12788;SDS011;6458;42.710;23.192;2022-09-24T08:25:16;7.07;;;5.80;;
12788;SDS011;6458;42.710;23.192;2022-09-24T08:27:43;7.97;;;5.70;;
12788;SDS011;6458;42.710;23.192;2022-09-24T08:30:10;10.77;;;6.33;;
12788;SDS011;6458;42.710;23.192;2022-09-24T08:32:37;6.93;;;5.73;;
12788;SDS011;6458;42.710;23.192;2022-09-24T08:35:05;6.73;;;5.07;;
12788;SDS011;6458;42.710;23.192;2022-09-24T08:37:32;5.90;;;5.30;;
12788;SDS011;6458;42.710;23.192;2022-09-24T08:39:59;5.13;;;4.63;;
12788;SDS011;6458;42.710;23.192;2022-09-24T08:42:30;8.13;;;5.20;;
12788;SDS011;6458;42.710;23.192;2022-09-24T08:44:59;5.23;;;4.73;;
12788;SDS011;6458;42.710;23.192;2022-09-24T08:47:46;4.87;;;4.37;;
12788;SDS011;6458;42.710;23.192;2022-09-24T08:50:15;7.43;;;5.10;;
12788;SDS011;6458;42.710;23.192;2022-09-24T08:52:48;4.57;;;4.20;;
12788;SDS011;6458;42.710;23.192;2022-09-24T08:55:16;4.47;;;4.07;;
12788;SDS011;6458;42.710;23.192;2022-09-24T08:57:48;4.47;;;4.07;;
12788;SDS011;6458;42.710;23.192;2022-09-24T09:00:16;4.80;;;4.37;;
12788;SDS011;6458;42.710;23.192;2022-09-24T09:02:46;4.30;;;3.97;;
12788;SDS011;6458;42.710;23.192;2022-09-24T09:05:17;3.93;;;3.63;;
12788;SDS011;6458;42.710;23.192;2022-09-24T09:07:50;3.83;;;3.53;;
12788;SDS011;6458;42.710;23.192;2022-09-24T09:10:22;5.80;;;3.93;;
12788;SDS011;6458;42.710;23.192;2022-09-24T09:12:55;3.80;;;3.60;;
12788;SDS011;6458;42.710;23.192;2022-09-24T09:15:23;3.43;;;3.23;;
12788;SDS011;6458;42.710;23.192;2022-09-24T09:17:51;3.40;;;3.20;;
12788;SDS011;6458;42.710;23.192;2022-09-24T09:20:22;3.00;;;2.60;;
12788;SDS011;6458;42.710;23.192;2022-09-24T09:22:50;2.80;;;2.70;;
12788;SDS011;6458;42.710;23.192;2022-09-24T09:25:19;2.93;;;2.77;;
12788;SDS011;6458;42.710;23.192;2022-09-24T09:27:50;3.97;;;2.50;;
12788;SDS011;6458;42.710;23.192;2022-09-24T09:30:19;2.50;;;2.40;;
12788;SDS011;6458;42.710;23.192;2022-09-24T09:32:50;2.70;;;2.60;;
12788;SDS011;6458;42.710;23.192;2022-09-24T09:35:22;2.70;;;2.50;;
12788;SDS011;6458;42.710;23.192;2022-09-24T09:37:52;2.87;;;2.77;;
12788;SDS011;6458;42.710;23.192;2022-09-24T09:40:24;2.60;;;2.37;;
12788;SDS011;6458;42.710;23.192;2022-09-24T09:42:57;2.90;;;2.80;;
12788;SDS011;6458;42.710;23.192;2022-09-24T09:45:27;2.50;;;2.40;;
12788;SDS011;6458;42.710;23.192;2022-09-24T09:47:56;2.50;;;2.33;;
12788;SDS011;6458;42.710;23.192;2022-09-24T09:50:25;2.30;;;2.20;;
12788;SDS011;6458;42.710;23.192;2022-09-24T09:52:52;2.57;;;2.37;;
12788;SDS011;6458;42.710;23.192;2022-09-24T09:55:20;4.57;;;2.57;;
12788;SDS011;6458;42.710;23.192;2022-09-24T09:57:47;2.70;;;2.60;;
12788;SDS011;6458;42.710;23.192;2022-09-24T10:00:22;3.00;;;2.80;;
12788;SDS011;6458;42.710;23.192;2022-09-24T10:02:51;2.60;;;2.40;;
12788;SDS011;6458;42.710;23.192;2022-09-24T10:05:19;2.87;;;2.77;;
12788;SDS011;6458;42.710;23.192;2022-09-24T10:07:48;2.33;;;2.23;;
12788;SDS011;6458;42.710;23.192;2022-09-24T10:10:16;2.30;;;2.20;;
12788;SDS011;6458;42.710;23.192;2022-09-24T10:12:43;2.23;;;2.13;;
12788;SDS011;6458;42.710;23.192;2022-09-24T10:15:17;2.97;;;2.77;;
12788;SDS011;6458;42.710;23.192;2022-09-24T10:17:44;2.50;;;2.40;;
12788;SDS011;6458;42.710;23.192;2022-09-24T10:20:16;2.63;;;2.53;;
12788;SDS011;6458;42.710;23.192;2022-09-24T10:22:45;2.40;;;2.30;;
12788;SDS011;6458;42.710;23.192;2022-09-24T10:25:16;2.67;;;2.57;;
12788;SDS011;6458;42.710;23.192;2022-09-24T10:27:45;2.50;;;2.30;;
12788;SDS011;6458;42.710;23.192;2022-09-24T10:30:13;2.43;;;2.33;;
12788;SDS011;6458;42.710;23.192;2022-09-24T10:32:57;2.70;;;2.60;;
12788;SDS011;6458;42.710;23.192;2022-09-24T10:35:27;2.63;;;2.50;;
12788;SDS011;6458;42.710;23.192;2022-09-24T10:37:55;2.60;;;2.50;;
12788;SDS011;6458;42.710;23.192;2022-09-24T10:40:23;2.60;;;2.50;;
12788;SDS011;6458;42.710;23.192;2022-09-24T10:42:58;2.80;;;2.60;;
12788;SDS011;6458;42.710;23.192;2022-09-24T10:45:27;2.27;;;2.17;;
12788;SDS011;6458;42.710;23.192;2022-09-24T10:47:58;2.43;;;2.33;;
12788;SDS011;6458;42.710;23.192;2022-09-24T10:50:28;2.30;;;2.20;;
12788;SDS011;6458;42.710;23.192;2022-09-24T10:52:56;3.70;;;2.37;;
12788;SDS011;6458;42.710;23.192;2022-09-24T10:55:36;2.23;;;2.13;;
12788;SDS011;6458;42.710;23.192;2022-09-24T10:58:07;2.60;;;2.50;;
12788;SDS011;6458;42.710;23.192;2022-09-24T11:00:38;2.43;;;2.33;;
12788;SDS011;6458;42.710;23.192;2022-09-24T11:05:53;2.60;;;2.40;;
12788;SDS011;6458;42.710;23.192;2022-09-24T11:08:24;2.43;;;2.33;;
12788;SDS011;6458;42.710;23.192;2022-09-24T11:11:02;2.67;;;2.57;;
12788;SDS011;6458;42.710;23.192;2022-09-24T11:13:36;2.37;;;2.27;;
12788;SDS011;6458;42.710;23.192;2022-09-24T11:16:11;2.60;;;2.40;;
12788;SDS011;6458;42.710;23.192;2022-09-24T11:18:42;2.90;;;2.70;;
12788;SDS011;6458;42.710;23.192;2022-09-24T11:21:19;2.67;;;2.47;;
12788;SDS011;6458;42.710;23.192;2022-09-24T11:23:51;2.43;;;2.33;;
12788;SDS011;6458;42.710;23.192;2022-09-24T11:26:24;2.53;;;2.40;;
12788;SDS011;6458;42.710;23.192;2022-09-24T11:31:39;2.77;;;2.57;;
12788;SDS011;6458;42.710;23.192;2022-09-24T11:34:10;2.80;;;2.60;;
12788;SDS011;6458;42.710;23.192;2022-09-24T11:36:44;2.87;;;2.77;;
12788;SDS011;6458;42.710;23.192;2022-09-24T11:39:20;2.73;;;2.63;;
12788;SDS011;6458;42.710;23.192;2022-09-24T11:41:53;3.47;;;2.57;;
12788;SDS011;6458;42.710;23.192;2022-09-24T11:44:39;6.10;;;2.60;;
12788;SDS011;6458;42.710;23.192;2022-09-24T11:47:15;2.90;;;2.70;;
12788;SDS011;6458;42.710;23.192;2022-09-24T11:49:54;2.50;;;2.40;;
12788;SDS011;6458;42.710;23.192;2022-09-24T11:52:28;2.70;;;2.60;;
12788;SDS011;6458;42.710;23.192;2022-09-24T11:54:59;2.73;;;2.63;;
12788;SDS011;6458;42.710;23.192;2022-09-24T11:57:28;2.60;;;2.50;;
12788;SDS011;6458;42.710;23.192;2022-09-24T11:59:57;3.03;;;2.90;;
12788;SDS011;6458;42.710;23.192;2022-09-24T12:02:25;2.90;;;2.80;;
12788;SDS011;6458;42.710;23.192;2022-09-24T12:04:56;3.37;;;3.07;;
12788;SDS011;6458;42.710;23.192;2022-09-24T12:07:25;3.43;;;3.13;;
12788;SDS011;6458;42.710;23.192;2022-09-24T12:09:57;3.07;;;2.87;;
12788;SDS011;6458;42.710;23.192;2022-09-24T12:12:25;2.93;;;2.70;;
12788;SDS011;6458;42.710;23.192;2022-09-24T12:14:54;2.50;;;2.40;;
12788;SDS011;6458;42.710;23.192;2022-09-24T12:17:25;4.30;;;4.00;;
12788;SDS011;6458;42.710;23.192;2022-09-24T12:19:54;2.80;;;2.70;;
12788;SDS011;6458;42.710;23.192;2022-09-24T12:22:23;2.97;;;2.40;;
12788;SDS011;6458;42.710;23.192;2022-09-24T12:24:52;3.73;;;3.30;;
12788;SDS011;6458;42.710;23.192;2022-09-24T12:27:21;2.70;;;2.60;;
12788;SDS011;6458;42.710;23.192;2022-09-24T12:29:54;3.13;;;2.90;;
12788;SDS011;6458;42.710;23.192;2022-09-24T12:32:41;2.67;;;2.57;;
12788;SDS011;6458;42.710;23.192;2022-09-24T12:35:33;10.57;;;9.57;;
12788;SDS011;6458;42.710;23.192;2022-09-24T12:38:03;3.20;;;3.00;;
12788;SDS011;6458;42.710;23.192;2022-09-24T12:43:19;3.33;;;2.80;;
12788;SDS011;6458;42.710;23.192;2022-09-24T12:45:52;3.10;;;3.00;;
12788;SDS011;6458;42.710;23.192;2022-09-24T12:48:19;2.70;;;2.60;;
12788;SDS011;6458;42.710;23.192;2022-09-24T12:50:53;2.43;;;2.23;;
12788;SDS011;6458;42.710;23.192;2022-09-24T12:53:23;3.20;;;3.10;;
12788;SDS011;6458;42.710;23.192;2022-09-24T12:55:57;2.37;;;2.27;;
12788;SDS011;6458;42.710;23.192;2022-09-24T12:58:27;3.33;;;2.77;;
12788;SDS011;6458;42.710;23.192;2022-09-24T13:01:04;2.60;;;2.40;;
12788;SDS011;6458;42.710;23.192;2022-09-24T13:03:32;2.97;;;2.77;;
12788;SDS011;6458;42.710;23.192;2022-09-24T13:05:59;2.77;;;2.57;;
12788;SDS011;6458;42.710;23.192;2022-09-24T13:08:33;2.30;;;2.20;;
12788;SDS011;6458;42.710;23.192;2022-09-24T13:11:01;3.70;;;2.60;;
12788;SDS011;6458;42.710;23.192;2022-09-24T13:13:32;2.53;;;2.43;;
12788;SDS011;6458;42.710;23.192;2022-09-24T13:16:00;3.03;;;2.87;;
12788;SDS011;6458;42.710;23.192;2022-09-24T13:18:27;2.93;;;2.83;;
12788;SDS011;6458;42.710;23.192;2022-09-24T13:20:58;3.93;;;3.63;;
12788;SDS011;6458;42.710;23.192;2022-09-24T13:23:45;6.97;;;5.73;;
12788;SDS011;6458;42.710;23.192;2022-09-24T13:26:14;3.37;;;3.17;;
12788;SDS011;6458;42.710;23.192;2022-09-24T13:28:53;2.63;;;2.53;;
12788;SDS011;6458;42.710;23.192;2022-09-24T13:31:24;2.60;;;2.50;;
12788;SDS011;6458;42.710;23.192;2022-09-24T13:33:53;2.47;;;2.37;;
12788;SDS011;6458;42.710;23.192;2022-09-24T13:36:22;2.63;;;2.53;;
12788;SDS011;6458;42.710;23.192;2022-09-24T13:38:52;2.90;;;2.80;;
12788;SDS011;6458;42.710;23.192;2022-09-24T13:41:22;2.40;;;2.30;;
12788;SDS011;6458;42.710;23.192;2022-09-24T13:43:50;2.73;;;2.63;;
12788;SDS011;6458;42.710;23.192;2022-09-24T13:46:19;2.73;;;2.60;;
12788;SDS011;6458;42.710;23.192;2022-09-24T13:48:47;3.00;;;2.47;;
12788;SDS011;6458;42.710;23.192;2022-09-24T13:51:14;2.67;;;2.53;;
12788;SDS011;6458;42.710;23.192;2022-09-24T13:53:43;2.27;;;2.27;;
12788;SDS011;6458;42.710;23.192;2022-09-24T13:56:11;2.80;;;2.60;;
12788;SDS011;6458;42.710;23.192;2022-09-24T13:58:38;2.90;;;2.70;;
12788;SDS011;6458;42.710;23.192;2022-09-24T14:01:09;4.00;;;3.70;;
12788;SDS011;6458;42.710;23.192;2022-09-24T14:03:38;3.10;;;2.90;;
12788;SDS011;6458;42.710;23.192;2022-09-24T14:06:08;3.27;;;3.07;;
12788;SDS011;6458;42.710;23.192;2022-09-24T14:08:35;2.60;;;2.50;;
12788;SDS011;6458;42.710;23.192;2022-09-24T14:11:05;2.40;;;2.30;;
12788;SDS011;6458;42.710;23.192;2022-09-24T14:13:34;2.90;;;2.70;;
12788;SDS011;6458;42.710;23.192;2022-09-24T14:16:06;2.57;;;2.37;;
12788;SDS011;6458;42.710;23.192;2022-09-24T14:18:33;2.70;;;2.60;;
12788;SDS011;6458;42.710;23.192;2022-09-24T14:21:03;2.80;;;2.60;;
12788;SDS011;6458;42.710;23.192;2022-09-24T14:23:32;2.90;;;2.70;;
12788;SDS011;6458;42.710;23.192;2022-09-24T14:26:02;2.83;;;2.63;;
12788;SDS011;6458;42.710;23.192;2022-09-24T14:28:29;2.83;;;2.63;;
12788;SDS011;6458;42.710;23.192;2022-09-24T14:30:57;2.50;;;2.40;;
12788;SDS011;6458;42.710;23.192;2022-09-24T14:33:25;2.50;;;2.40;;
12788;SDS011;6458;42.710;23.192;2022-09-24T14:35:54;2.70;;;2.50;;
12788;SDS011;6458;42.710;23.192;2022-09-24T14:38:23;2.67;;;2.57;;
12788;SDS011;6458;42.710;23.192;2022-09-24T14:40:54;2.60;;;2.50;;
12788;SDS011;6458;42.710;23.192;2022-09-24T14:43:22;2.93;;;2.40;;
12788;SDS011;6458;42.710;23.192;2022-09-24T14:45:58;3.10;;;2.83;;
12788;SDS011;6458;42.710;23.192;2022-09-24T14:48:27;4.17;;;3.53;;
12788;SDS011;6458;42.710;23.192;2022-09-24T14:50:54;3.77;;;3.47;;
12788;SDS011;6458;42.710;23.192;2022-09-24T14:53:23;2.90;;;2.80;;
12788;SDS011;6458;42.710;23.192;2022-09-24T14:55:51;2.50;;;2.40;;
12788;SDS011;6458;42.710;23.192;2022-09-24T14:58:22;3.13;;;2.80;;
12788;SDS011;6458;42.710;23.192;2022-09-24T15:00:49;2.63;;;2.53;;
12788;SDS011;6458;42.710;23.192;2022-09-24T15:03:20;2.73;;;2.53;;
12788;SDS011;6458;42.710;23.192;2022-09-24T15:05:49;2.80;;;2.70;;
12788;SDS011;6458;42.710;23.192;2022-09-24T15:08:21;2.90;;;2.70;;
12788;SDS011;6458;42.710;23.192;2022-09-24T15:10:53;2.50;;;2.40;;
12788;SDS011;6458;42.710;23.192;2022-09-24T15:13:21;2.43;;;2.33;;
12788;SDS011;6458;42.710;23.192;2022-09-24T15:15:48;3.23;;;2.60;;
12788;SDS011;6458;42.710;23.192;2022-09-24T15:18:15;2.97;;;2.50;;
12788;SDS011;6458;42.710;23.192;2022-09-24T15:20:42;2.47;;;2.37;;